BGTLBGJN

Guest
Details From BGTL - THULE AIR BASE
To BGJN - Ilulissat/Jakobshavn
Flight Number -
Tags generated
Created
Modified
Stats Distance 571 nm / 1,057 km
Max Altitude 35,000 ft / 10,668 m
Waypoints 6
Social Downloads 0
Likes 0
Share VATSIM

Download

Looking for another format? Having issues loading an existing format? Contact us
Advertisement - Login to hide

Notes

Basic altitude profile: - Ascent Rate: 2500ft/min - Ascent Speed: 250kts - Cruise Altitude: 12000ft - Cruise Speed: 420kts - Descent Rate: 1500ft/min - Descent Speed: 250kts Options: - Use NATs: yes - Use PACOTS: yes - Use low airways: yes - Use high airways: yes

Route

BGTL SAVIS 5E59 TOMAS W20 DISGU BGJN

ID Type Via Altitude Latitude Longitude Leg Dist Tot Dist Heading (true) Name
O BGTL APT - 0 ft / 0 m 76.53120˚ -68.70316˚ - 0 nm - THULE AIR BASE
SAVIS FIX - 35,000 ft / 10,668 m 75.35000˚ -63.66667˚ 102 nm 102 nm 132° / 136° -
TOMAS FIX 5E59 (AWY-HI) 35,000 ft / 10,668 m 73.73333˚ -58.58333˚ 126 nm 228 nm 138° / 142° -
UP NDB W20 (AWY-HI) 19,500 ft / 5,944 m 72.79261˚ -56.14602˚ 70 nm 299 nm 142° / 144° UPERNAVIK NDB
DISGU FIX W20 (AWY-LO) 11,200 ft / 3,414 m 69.24415˚ -53.52581˚ 219 nm 518 nm 165° / 168° -
O BGJN APT - 0 ft / 0 m 69.24444˚ -51.06222˚ 52 nm 570 nm 89° / 91° Ilulissat/Jakobshavn

Altitude Profile

Advertisement - Login to hide

Weather


0- 5 10 15 20 25 30 35+ Temperature / ° C

Clouds and Precipitation
Forecast for 2017-12-13 06:00 UTC. Updated 42 minutes ago

Ground ~20,000 ft ~40,000 ft Winds

BGTL

Details ICAO BGTL (THU)
Name THULE AIR BASE
Region Greenland
Timezone America/Thule (UTC-4.0)
Stats Elevation 251 ft / 77 m (AMSL)
Location 76.531203° -68.703163°
Runways 1
Magnetic Variation 44.527° W

METAR

BGTL 130558Z AUTO 10008KT 9999 CLR M16/M18 A2931 RMK AO2 SLP915 T11631184 11104 21183 52031

Decode

TAF

TAF BGTL 130200Z 1302/1408 09009KT 9999 FEW100 QNH2902INS BECMG 1305/1306 16006KT 9999 SCT060 BKN120 QNH2928INS BECMG 1323/1324 16006KT 8000 -SN BKN015 OVC050 620158 QNH2993INS TXM13/1318Z TNM24/1312Z LAST NO AMDS AFT 1302 NEXT 1310

Decode

Departure Runways

ID Width Length Bearing (true) Bearing (mag) Surface Threshold Offset Overrun Length
08T 140 ft / 43 m 9,957 ft / 3,035 m 84.91° 129.44° Asphalt 0 ft / 0 m 233 ft / 71 m
26T 140 ft / 43 m 9,957 ft / 3,035 m 265.02° 309.55° Asphalt 0 ft / 0 m 233 ft / 71 m

BGJN

Details ICAO BGJN (JAV)
Name Ilulissat/Jakobshavn
Region Greenland
Timezone America/Godthab (UTC-3.0)
Stats Elevation 95 ft / 29 m (AMSL)
Location 69.244438° -51.062221°
Runways 1
Magnetic Variation 31.087° W

METAR

BGJN 130550Z AUTO 15011KT 2800NDV -SN BKN011/// BKN015/// M04/M06 Q0997

Decode

TAF

Not found

Destination Runways

ID Width Length Bearing (true) Bearing (mag) Surface Threshold Offset Overrun Length
08 98 ft / 30 m 2,773 ft / 845 m 34.99° 66.08° Asphalt 0 ft / 0 m 0 ft / 0 m
26 98 ft / 30 m 2,773 ft / 845 m 215.01° 246.10° Asphalt 0 ft / 0 m 0 ft / 0 m